Time;durP1;ratioP1;P1;durP2;ratioP2;P2;SDS_P1;SDS_P2;PMS_P1;PMS_P2;Temp;Humidity;BMP_temperature;BMP_pressure;BME280_temperature;BME280_humidity;BME280_pressure;Samples;Min_cycle;Max_cycle;Signal;HPM_P1;HPM_P2
2022/08/19 00:01:23;;;;;;;33.10;30.03;;;;;;;;;;5072650;28;21000;-74
2022/08/19 00:03:55;;;;;;;36.40;32.87;;;;;;;;;;5057087;28;20953;-74
2022/08/19 00:06:21;;;;;;;33.90;30.70;;;;;;;;;;5070316;28;20835;-74
2022/08/19 00:08:48;;;;;;;33.07;29.60;;;;;;;;;;5091404;28;20554;-74
2022/08/19 00:11:15;;;;;;;36.97;33.37;;;;;;;;;;5082996;28;20831;-74
2022/08/19 00:13:51;;;;;;;32.87;29.67;;;;;;;;;;5078579;28;20428;-75
2022/08/19 00:16:20;;;;;;;31.03;28.07;;;;;;;;;;5081734;28;21013;-74
2022/08/19 00:18:52;;;;;;;28.30;25.80;;;;;;;;;;5076458;28;20498;-74
2022/08/19 00:21:18;;;;;;;29.73;27.03;;;;;;;;;;5080824;28;20535;-74
2022/08/19 00:23:45;;;;;;;31.60;28.80;;;;;;;;;;5076550;28;20424;-73
2022/08/19 00:26:12;;;;;;;28.50;25.90;;;;;;;;;;5080523;28;20432;-74
2022/08/19 00:28:39;;;;;;;29.20;26.60;;;;;;;;;;5055142;28;20476;-74
2022/08/19 00:31:06;;;;;;;27.73;25.30;;;;;;;;;;5083756;28;20471;-74
2022/08/19 00:33:32;;;;;;;29.17;26.43;;;;;;;;;;5086937;28;20470;-74
2022/08/19 00:36:00;;;;;;;27.30;24.93;;;;;;;;;;5071750;28;20428;-74
2022/08/19 00:38:27;;;;;;;29.97;26.83;;;;;;;;;;5092063;28;20498;-74
2022/08/19 00:41:03;;;;;;;26.13;23.73;;;;;;;;;;5078525;28;20433;-74
2022/08/19 00:43:29;;;;;;;24.57;22.37;;;;;;;;;;5085253;28;20440;-74
2022/08/19 00:45:56;;;;;;;25.47;23.17;;;;;;;;;;5084701;28;20428;-74
2022/08/19 00:48:23;;;;;;;26.33;23.87;;;;;;;;;;5061346;28;20489;-75
2022/08/19 00:50:50;;;;;;;25.50;23.10;;;;;;;;;;5075066;28;20430;-74
2022/08/19 00:53:19;;;;;;;25.07;22.97;;;;;;;;;;5094412;28;20423;-74
2022/08/19 00:55:47;;;;;;;23.73;21.50;;;;;;;;;;5083361;28;20932;-74
2022/08/19 00:58:19;;;;;;;21.10;19.23;;;;;;;;;;5093303;28;20470;-74
2022/08/19 01:00:45;;;;;;;20.73;18.93;;;;;;;;;;5060064;28;20478;-74
2022/08/19 01:03:14;;;;;;;21.67;19.77;;;;;;;;;;5052421;28;20465;-74
2022/08/19 01:05:45;;;;;;;22.73;20.53;;;;;;;;;;5058997;28;20455;-74
2022/08/19 01:08:13;;;;;;;19.87;18.07;;;;;;;;;;5091393;28;20458;-74
2022/08/19 01:10:44;;;;;;;21.43;19.60;;;;;;;;;;5088561;28;20494;-74
2022/08/19 01:13:11;;;;;;;21.63;19.53;;;;;;;;;;5071139;28;20912;-74
2022/08/19 01:15:41;;;;;;;21.27;19.10;;;;;;;;;;5052784;28;20465;-74
2022/08/19 01:18:09;;;;;;;22.67;20.50;;;;;;;;;;5051089;28;20491;-74
2022/08/19 01:20:36;;;;;;;22.03;20.13;;;;;;;;;;5069747;28;20428;-74
2022/08/19 01:23:03;;;;;;;19.90;18.00;;;;;;;;;;5083495;28;20991;-74
2022/08/19 01:25:36;;;;;;;19.53;17.83;;;;;;;;;;5060756;28;20504;-74
2022/08/19 01:28:04;;;;;;;21.10;19.20;;;;;;;;;;5058142;28;20517;-74
2022/08/19 01:30:37;;;;;;;20.73;18.83;;;;;;;;;;5074890;28;20443;-74
2022/08/19 01:33:05;;;;;;;21.20;19.20;;;;;;;;;;5078445;28;20493;-74
2022/08/19 01:35:32;;;;;;;20.77;18.90;;;;;;;;;;5082989;28;20425;-74
2022/08/19 01:38:01;;;;;;;22.00;20.10;;;;;;;;;;5053700;28;20983;-74
2022/08/19 01:40:29;;;;;;;20.30;18.50;;;;;;;;;;5070277;28;20506;-74
2022/08/19 01:42:56;;;;;;;20.40;18.50;;;;;;;;;;5070204;28;20416;-74
2022/08/19 01:45:24;;;;;;;20.70;18.80;;;;;;;;;;5079934;28;20426;-74
2022/08/19 01:47:52;;;;;;;20.20;18.57;;;;;;;;;;5073548;28;20578;-74
2022/08/19 01:50:28;;;;;;;19.27;17.50;;;;;;;;;;5078871;28;20432;-74
2022/08/19 01:52:55;;;;;;;23.10;21.13;;;;;;;;;;5076324;28;20847;-74
2022/08/19 01:55:29;;;;;;;20.83;19.03;;;;;;;;;;5074559;28;20420;-74
2022/08/19 01:57:57;;;;;;;20.40;18.50;;;;;;;;;;5083879;28;20503;-74
2022/08/19 02:00:25;;;;;;;20.70;19.03;;;;;;;;;;5069909;28;20848;-74
2022/08/19 02:02:52;;;;;;;19.93;18.20;;;;;;;;;;5053305;28;20940;-74
2022/08/19 02:05:20;;;;;;;21.40;19.40;;;;;;;;;;5084736;28;20423;-74
2022/08/19 02:07:47;;;;;;;20.27;18.50;;;;;;;;;;5060761;28;20950;-74
2022/08/19 02:10:17;;;;;;;19.50;17.80;;;;;;;;;;5076499;28;20460;-74
2022/08/19 02:12:43;;;;;;;19.60;17.93;;;;;;;;;;5084312;28;20861;-74
2022/08/19 02:15:10;;;;;;;21.53;19.63;;;;;;;;;;5074774;28;20448;-74
2022/08/19 02:17:36;;;;;;;21.77;19.57;;;;;;;;;;5081381;28;20481;-74
2022/08/19 02:20:03;;;;;;;20.00;18.37;;;;;;;;;;5092158;28;20471;-74
2022/08/19 02:22:30;;;;;;;21.87;19.90;;;;;;;;;;5090000;28;20932;-74
2022/08/19 02:24:57;;;;;;;22.83;20.70;;;;;;;;;;5074390;28;20475;-74
2022/08/19 02:27:23;;;;;;;18.87;17.27;;;;;;;;;;5069877;28;20421;-74
2022/08/19 02:29:50;;;;;;;19.00;17.50;;;;;;;;;;5083050;28;20479;-74
2022/08/19 02:32:19;;;;;;;19.40;17.60;;;;;;;;;;5080483;28;20427;-74
2022/08/19 02:34:46;;;;;;;20.23;18.40;;;;;;;;;;5073123;28;20514;-74
2022/08/19 02:40:01;;;;;;;17.80;16.13;;;;;;;;;;5040104;28;20464;-74
2022/08/19 02:42:28;;;;;;;20.23;18.53;;;;;;;;;;5066197;28;20432;-74
2022/08/19 02:44:55;;;;;;;21.80;19.77;;;;;;;;;;5066208;28;20452;-74
2022/08/19 02:47:22;;;;;;;19.30;17.60;;;;;;;;;;5066264;28;20483;-74
2022/08/19 02:49:49;;;;;;;18.80;17.30;;;;;;;;;;5049374;28;21335;-74
2022/08/19 02:52:16;;;;;;;19.80;18.00;;;;;;;;;;5066276;28;20472;-74
2022/08/19 02:54:43;;;;;;;19.30;17.60;;;;;;;;;;5064792;28;20498;-74
2022/08/19 02:57:10;;;;;;;18.90;16.97;;;;;;;;;;5089601;28;20492;-74
2022/08/19 02:59:37;;;;;;;19.53;17.93;;;;;;;;;;5072930;28;20495;-74
2022/08/19 03:02:03;;;;;;;18.33;16.83;;;;;;;;;;5085445;28;20436;-74
2022/08/19 03:04:30;;;;;;;20.53;18.60;;;;;;;;;;5069425;28;20437;-74
2022/08/19 03:06:57;;;;;;;19.97;18.17;;;;;;;;;;5069769;28;20459;-74
2022/08/19 03:09:36;;;;;;;20.07;18.37;;;;;;;;;;5074461;28;20958;-74
2022/08/19 03:12:03;;;;;;;17.60;16.10;;;;;;;;;;5053894;28;20437;-74
2022/08/19 03:14:31;;;;;;;19.37;17.57;;;;;;;;;;5066046;28;20460;-74
2022/08/19 03:16:57;;;;;;;22.17;20.07;;;;;;;;;;5069120;28;21273;-74
2022/08/19 03:19:24;;;;;;;22.60;20.50;;;;;;;;;;5078617;28;20998;-74
2022/08/19 03:21:51;;;;;;;24.60;22.20;;;;;;;;;;5059250;28;20797;-74
2022/08/19 03:24:18;;;;;;;25.80;23.30;;;;;;;;;;5079692;28;20428;-74
2022/08/19 03:26:49;;;;;;;26.80;24.00;;;;;;;;;;5086012;28;20451;-74
2022/08/19 03:29:16;;;;;;;25.90;23.30;;;;;;;;;;5074789;28;20505;-74
2022/08/19 03:31:56;;;;;;;26.83;24.23;;;;;;;;;;5087514;28;20504;-74
2022/08/19 03:34:27;;;;;;;26.33;23.63;;;;;;;;;;5086951;28;20471;-74
2022/08/19 03:36:58;;;;;;;28.67;25.87;;;;;;;;;;5102010;28;20435;-74
2022/08/19 03:39:26;;;;;;;25.93;23.37;;;;;;;;;;5088272;28;20455;-74
2022/08/19 03:41:56;;;;;;;26.03;23.63;;;;;;;;;;5097233;28;20440;-75
2022/08/19 03:44:44;;;;;;;26.80;24.27;;;;;;;;;;5099769;28;20460;-74
2022/08/19 03:47:15;;;;;;;30.67;27.57;;;;;;;;;;5081172;28;20445;-74
2022/08/19 03:49:42;;;;;;;31.90;28.60;;;;;;;;;;5052466;28;20461;-74
2022/08/19 03:52:09;;;;;;;27.37;24.43;;;;;;;;;;5079631;28;20534;-75
2022/08/19 03:54:35;;;;;;;28.93;25.97;;;;;;;;;;5092727;28;20510;-74
2022/08/19 03:57:02;;;;;;;29.10;26.20;;;;;;;;;;5092893;28;20924;-74
2022/08/19 03:59:30;;;;;;;29.20;26.17;;;;;;;;;;5092419;28;20447;-74
2022/08/19 04:01:58;;;;;;;27.43;24.80;;;;;;;;;;5062571;28;20487;-74
2022/08/19 04:04:24;;;;;;;27.90;25.00;;;;;;;;;;5075006;28;20431;-74
2022/08/19 04:06:55;;;;;;;27.40;24.90;;;;;;;;;;5062746;28;20437;-74
2022/08/19 04:09:21;;;;;;;29.40;24.60;;;;;;;;;;5058568;28;21310;-74
2022/08/19 04:11:50;;;;;;;28.20;25.40;;;;;;;;;;5085484;28;20534;-74
2022/08/19 04:14:18;;;;;;;26.90;24.20;;;;;;;;;;5079493;28;20432;-74
2022/08/19 04:16:46;;;;;;;25.23;22.83;;;;;;;;;;5092513;28;20452;-74
2022/08/19 04:19:13;;;;;;;27.23;24.63;;;;;;;;;;5075219;28;20458;-74
2022/08/19 04:21:42;;;;;;;25.53;23.20;;;;;;;;;;5091204;28;20849;-74
2022/08/19 04:24:09;;;;;;;26.83;24.23;;;;;;;;;;5081478;28;20492;-74
2022/08/19 04:26:37;;;;;;;25.90;23.53;;;;;;;;;;5090602;28;20503;-74
2022/08/19 04:29:04;;;;;;;27.20;24.60;;;;;;;;;;5071585;28;20469;-74
2022/08/19 04:31:37;;;;;;;24.87;22.67;;;;;;;;;;5074987;28;20420;-74
2022/08/19 04:34:05;;;;;;;23.50;21.30;;;;;;;;;;5092039;28;20538;-74
2022/08/19 04:36:33;;;;;;;25.27;22.87;;;;;;;;;;5091906;28;20412;-74
2022/08/19 04:39:03;;;;;;;25.83;23.23;;;;;;;;;;5075141;28;20498;-74
2022/08/19 04:44:17;;;;;;;22.57;20.53;;;;;;;;;;5080862;28;20460;-74
2022/08/19 04:46:48;;;;;;;23.80;21.70;;;;;;;;;;5066574;28;20433;-74
2022/08/19 04:49:18;;;;;;;23.47;21.27;;;;;;;;;;5078101;28;20474;-74
2022/08/19 04:51:47;;;;;;;23.37;21.00;;;;;;;;;;5087694;28;20427;-73
2022/08/19 04:54:14;;;;;;;24.47;22.27;;;;;;;;;;5071563;28;20440;-74
2022/08/19 04:56:54;;;;;;;23.13;21.03;;;;;;;;;;5064238;28;20975;-74
2022/08/19 04:59:21;;;;;;;24.10;21.90;;;;;;;;;;5075523;28;20491;-74
2022/08/19 05:01:49;;;;;;;23.43;21.23;;;;;;;;;;5092602;28;20420;-74
2022/08/19 05:04:20;;;;;;;23.27;21.10;;;;;;;;;;5075737;28;20439;-73
2022/08/19 05:06:47;;;;;;;23.67;21.17;;;;;;;;;;5092034;28;20432;-73
2022/08/19 05:09:15;;;;;;;22.27;20.33;;;;;;;;;;5073782;28;20475;-74
2022/08/19 05:11:41;;;;;;;24.90;22.53;;;;;;;;;;5059767;28;20457;-74
2022/08/19 05:14:09;;;;;;;22.30;20.20;;;;;;;;;;5108578;28;20460;-74
2022/08/19 05:16:35;;;;;;;24.43;22.03;;;;;;;;;;5093242;28;20468;-74
2022/08/19 05:24:35;;;;;;;22.10;20.07;;;;;;;;;;5071813;28;20429;-74
2022/08/19 05:27:21;;;;;;;22.10;20.10;;;;;;;;;;5091691;28;20437;-74
2022/08/19 05:29:48;;;;;;;22.97;20.87;;;;;;;;;;5074811;28;20484;-74
2022/08/19 05:32:15;;;;;;;22.33;19.83;;;;;;;;;;5075528;28;20413;-74
2022/08/19 05:34:41;;;;;;;24.60;22.17;;;;;;;;;;5071618;28;20463;-74
2022/08/19 05:37:08;;;;;;;23.70;21.70;;;;;;;;;;5074913;28;20953;-74
2022/08/19 05:39:35;;;;;;;23.27;21.00;;;;;;;;;;5073899;28;20451;-74
2022/08/19 05:42:06;;;;;;;23.80;21.27;;;;;;;;;;5101688;28;20404;-74
2022/08/19 05:44:35;;;;;;;23.57;21.10;;;;;;;;;;5099084;28;20441;-73
2022/08/19 05:47:02;;;;;;;26.83;24.13;;;;;;;;;;5091338;28;20419;-74
2022/08/19 05:49:29;;;;;;;23.30;20.90;;;;;;;;;;5090520;28;20460;-74
2022/08/19 05:51:56;;;;;;;23.27;21.13;;;;;;;;;;5073706;28;20940;-74
2022/08/19 05:54:23;;;;;;;24.20;22.10;;;;;;;;;;5090980;28;20420;-75
2022/08/19 05:56:50;;;;;;;24.77;22.47;;;;;;;;;;5073766;28;20459;-75
2022/08/19 05:59:19;;;;;;;22.77;20.77;;;;;;;;;;5087168;28;20555;-74
2022/08/19 06:01:46;;;;;;;22.63;20.63;;;;;;;;;;5070649;28;20433;-74
2022/08/19 06:04:18;;;;;;;22.53;20.43;;;;;;;;;;5071404;28;20465;-74
2022/08/19 06:06:46;;;;;;;23.77;21.40;;;;;;;;;;5087246;28;20433;-74
2022/08/19 06:09:12;;;;;;;21.80;19.83;;;;;;;;;;5086831;28;20495;-74
2022/08/19 06:11:46;;;;;;;22.93;21.03;;;;;;;;;;5069949;28;20868;-74
2022/08/19 06:14:14;;;;;;;24.70;22.37;;;;;;;;;;5069943;28;20897;-74
2022/08/19 06:16:42;;;;;;;25.07;22.67;;;;;;;;;;5070623;28;20474;-74
2022/08/19 06:19:10;;;;;;;24.40;21.90;;;;;;;;;;5091457;28;20882;-74
2022/08/19 06:21:38;;;;;;;24.53;22.27;;;;;;;;;;5079004;28;20441;-74
2022/08/19 06:24:06;;;;;;;23.17;20.87;;;;;;;;;;5092857;28;20416;-74
2022/08/19 06:26:34;;;;;;;22.90;20.70;;;;;;;;;;5100189;28;20781;-74
2022/08/19 06:29:02;;;;;;;22.40;20.27;;;;;;;;;;5092208;28;20444;-74
2022/08/19 06:31:31;;;;;;;21.67;19.33;;;;;;;;;;5073717;28;20431;-74
2022/08/19 06:33:57;;;;;;;23.17;21.07;;;;;;;;;;5090164;28;20428;-74
2022/08/19 06:36:33;;;;;;;26.27;23.73;;;;;;;;;;5090365;28;20408;-74
2022/08/19 06:39:05;;;;;;;24.73;22.27;;;;;;;;;;5090088;28;20447;-74
2022/08/19 06:41:35;;;;;;;23.43;21.30;;;;;;;;;;5091650;28;20832;-74
2022/08/19 06:44:11;;;;;;;24.10;21.70;;;;;;;;;;5074384;28;20477;-74
2022/08/19 06:46:39;;;;;;;22.90;20.73;;;;;;;;;;5089895;28;20783;-74
2022/08/19 06:49:08;;;;;;;23.17;20.80;;;;;;;;;;5090933;28;20459;-74
2022/08/19 06:51:36;;;;;;;25.00;22.50;;;;;;;;;;5073290;28;20915;-74
2022/08/19 06:54:09;;;;;;;24.00;21.57;;;;;;;;;;5091434;28;20403;-74
2022/08/19 06:56:45;;;;;;;24.10;21.63;;;;;;;;;;5090203;28;20514;-74
2022/08/19 06:59:14;;;;;;;25.43;22.70;;;;;;;;;;5073218;28;20951;-74
2022/08/19 07:01:46;;;;;;;22.77;20.57;;;;;;;;;;5063883;28;20428;-74
2022/08/19 07:04:15;;;;;;;24.00;21.83;;;;;;;;;;5085964;28;20427;-74
2022/08/19 07:06:42;;;;;;;24.00;21.40;;;;;;;;;;5073569;28;20924;-74
2022/08/19 07:09:12;;;;;;;21.70;19.50;;;;;;;;;;5080855;28;20439;-74
2022/08/19 07:11:43;;;;;;;26.40;23.70;;;;;;;;;;5077276;28;20436;-74
2022/08/19 07:14:11;;;;;;;23.70;21.43;;;;;;;;;;5088196;28;20413;-75
2022/08/19 07:16:46;;;;;;;22.77;20.37;;;;;;;;;;5088262;28;20419;-72
2022/08/19 07:19:14;;;;;;;23.20;21.00;;;;;;;;;;5087973;28;20463;-73
2022/08/19 07:21:45;;;;;;;22.87;20.70;;;;;;;;;;5101372;28;20420;-72
2022/08/19 07:24:13;;;;;;;23.47;21.13;;;;;;;;;;5085639;28;20473;-72
2022/08/19 07:26:45;;;;;;;22.10;19.90;;;;;;;;;;5105052;28;20432;-73
2022/08/19 07:29:18;;;;;;;23.87;21.37;;;;;;;;;;5087647;28;20457;-72
2022/08/19 07:31:45;;;;;;;22.17;19.93;;;;;;;;;;5103241;28;20470;-74
2022/08/19 07:34:13;;;;;;;23.77;21.27;;;;;;;;;;5106049;28;20428;-73
2022/08/19 07:36:41;;;;;;;22.20;20.03;;;;;;;;;;5103613;28;20484;-73
2022/08/19 07:39:10;;;;;;;25.10;20.13;;;;;;;;;;5105924;28;20526;-72
2022/08/19 07:41:38;;;;;;;20.10;18.20;;;;;;;;;;5103500;28;20939;-74
2022/08/19 07:44:07;;;;;;;21.23;19.27;;;;;;;;;;5091333;28;20440;-73
2022/08/19 07:46:37;;;;;;;21.27;19.27;;;;;;;;;;5064430;28;20464;-73
2022/08/19 07:49:05;;;;;;;21.47;19.40;;;;;;;;;;5078268;28;20460;-73
2022/08/19 07:51:32;;;;;;;22.07;20.07;;;;;;;;;;5077771;28;20545;-73
2022/08/19 07:54:02;;;;;;;19.80;17.90;;;;;;;;;;5049777;28;20422;-74
2022/08/19 07:56:30;;;;;;;22.33;19.47;;;;;;;;;;5088572;28;20417;-73
2022/08/19 07:58:57;;;;;;;19.30;16.83;;;;;;;;;;5091387;28;20469;-72
2022/08/19 08:01:28;;;;;;;20.00;17.90;;;;;;;;;;5090990;28;20444;-73
2022/08/19 08:09:34;;;;;;;20.50;17.80;;;;;;;;;;5090168;28;20496;-75
2022/08/19 08:12:16;;;;;;;20.67;18.77;;;;;;;;;;5088405;28;20527;-75
2022/08/19 08:15:04;;;;;;;21.00;19.13;;;;;;;;;;5081609;28;20997;-76
2022/08/19 08:17:33;;;;;;;19.13;17.33;;;;;;;;;;5092384;28;20448;-76
2022/08/19 08:20:17;;;;;;;19.33;17.50;;;;;;;;;;5072207;28;20463;-76
2022/08/19 08:25:30;;;;;;;18.67;16.87;;;;;;;;;;5078183;28;20436;-76
2022/08/19 08:27:59;;;;;;;19.37;17.67;;;;;;;;;;5075255;28;20431;-76
2022/08/19 08:30:27;;;;;;;18.13;16.53;;;;;;;;;;5092037;28;20451;-76
2022/08/19 08:32:57;;;;;;;16.50;14.97;;;;;;;;;;5091976;28;20446;-76
2022/08/19 08:35:24;;;;;;;16.37;14.87;;;;;;;;;;5075405;28;20810;-76
2022/08/19 08:37:52;;;;;;;14.77;13.47;;;;;;;;;;5091826;28;20834;-76
2022/08/19 08:40:22;;;;;;;16.20;14.70;;;;;;;;;;5092472;28;20432;-76
2022/08/19 08:43:00;;;;;;;16.27;14.70;;;;;;;;;;5091633;28;20416;-76
2022/08/19 08:45:33;;;;;;;16.03;14.57;;;;;;;;;;5091636;28;20435;-76
2022/08/19 08:48:15;;;;;;;15.13;13.63;;;;;;;;;;5091760;28;20911;-76
2022/08/19 08:50:52;;;;;;;15.40;14.10;;;;;;;;;;5091600;28;20478;-76
2022/08/19 08:53:19;;;;;;;16.00;14.53;;;;;;;;;;5074727;28;20475;-76
2022/08/19 08:55:55;;;;;;;18.13;16.50;;;;;;;;;;5078318;28;20426;-74
2022/08/19 08:58:32;;;;;;;17.10;15.70;;;;;;;;;;5082224;28;20439;-74
2022/08/19 09:00:59;;;;;;;17.10;14.50;;;;;;;;;;5091572;28;20790;-76
2022/08/19 09:03:30;;;;;;;17.73;16.03;;;;;;;;;;5079617;28;20438;-76
2022/08/19 09:06:01;;;;;;;15.90;14.50;;;;;;;;;;5081987;28;20456;-76
2022/08/19 09:08:33;;;;;;;17.47;15.90;;;;;;;;;;5082027;28;20494;-76
2022/08/19 09:11:02;;;;;;;17.70;16.10;;;;;;;;;;5077949;28;20531;-75
2022/08/19 09:13:49;;;;;;;15.43;14.03;;;;;;;;;;5072247;28;20440;-75
2022/08/19 09:16:18;;;;;;;16.17;14.70;;;;;;;;;;5076487;28;20420;-75
2022/08/19 09:18:54;;;;;;;18.40;16.80;;;;;;;;;;5070463;28;20475;-75
2022/08/19 09:21:22;;;;;;;19.90;18.00;;;;;;;;;;5070815;28;20424;-75
2022/08/19 09:23:58;;;;;;;17.50;16.00;;;;;;;;;;5071972;28;20796;-75
2022/08/19 09:26:26;;;;;;;16.37;14.67;;;;;;;;;;5069958;28;20433;-75
2022/08/19 09:29:13;;;;;;;17.07;15.47;;;;;;;;;;5070780;28;20476;-75
2022/08/19 09:31:39;;;;;;;16.87;15.20;;;;;;;;;;5054098;28;21330;-75
2022/08/19 09:34:06;;;;;;;17.37;15.87;;;;;;;;;;5059959;28;20473;-75
2022/08/19 09:36:46;;;;;;;14.67;13.27;;;;;;;;;;5088929;28;20439;-75
2022/08/19 09:39:13;;;;;;;15.07;13.67;;;;;;;;;;5090450;28;20456;-75
2022/08/19 09:41:41;;;;;;;14.63;13.33;;;;;;;;;;5091588;28;20832;-75
2022/08/19 09:44:13;;;;;;;13.80;12.50;;;;;;;;;;5074387;28;20440;-75
2022/08/19 09:46:39;;;;;;;13.27;12.10;;;;;;;;;;5090523;28;20955;-75
2022/08/19 09:49:06;;;;;;;14.30;12.90;;;;;;;;;;5073443;28;20495;-75
2022/08/19 09:51:33;;;;;;;13.40;12.30;;;;;;;;;;5090272;28;20499;-75
2022/08/19 09:54:02;;;;;;;14.47;13.07;;;;;;;;;;5090260;28;20486;-75
2022/08/19 09:56:30;;;;;;;13.50;12.30;;;;;;;;;;5073778;28;20927;-75
2022/08/19 09:58:58;;;;;;;15.27;13.97;;;;;;;;;;5090202;28;20482;-74
2022/08/19 10:01:27;;;;;;;14.70;13.40;;;;;;;;;;5055564;28;20432;-75
2022/08/19 10:03:55;;;;;;;14.10;12.80;;;;;;;;;;5073155;28;20482;-75
2022/08/19 10:06:23;;;;;;;17.47;15.83;;;;;;;;;;5070119;28;21333;-75
2022/08/19 10:09:10;;;;;;;16.30;14.80;;;;;;;;;;5096782;28;20471;-75
2022/08/19 10:11:40;;;;;;;16.90;15.20;;;;;;;;;;5108847;28;20490;-75
2022/08/19 10:14:22;;;;;;;15.80;14.40;;;;;;;;;;5095312;28;20420;-75
2022/08/19 10:16:50;;;;;;;16.63;15.13;;;;;;;;;;5094088;28;20566;-76
2022/08/19 10:19:16;;;;;;;14.97;13.70;;;;;;;;;;5109944;28;20456;-76
2022/08/19 10:21:52;;;;;;;17.27;15.57;;;;;;;;;;5109583;28;20430;-76
2022/08/19 10:24:20;;;;;;;15.07;13.67;;;;;;;;;;5093339;28;20458;-76
2022/08/19 10:26:48;;;;;;;14.83;13.43;;;;;;;;;;5073210;28;20473;-76
2022/08/19 10:29:24;;;;;;;18.63;16.77;;;;;;;;;;5090054;28;20951;-76
2022/08/19 10:31:59;;;;;;;16.70;15.10;;;;;;;;;;5090174;28;20455;-76
2022/08/19 10:34:28;;;;;;;15.53;14.20;;;;;;;;;;5090608;28;20453;-76
2022/08/19 10:36:56;;;;;;;14.63;13.33;;;;;;;;;;5090821;28;20446;-76
2022/08/19 10:39:31;;;;;;;15.40;14.03;;;;;;;;;;5094168;28;20466;-76
2022/08/19 10:42:10;;;;;;;16.37;14.97;;;;;;;;;;5095421;28;20907;-76
2022/08/19 10:44:37;;;;;;;16.00;14.43;;;;;;;;;;5095332;28;20946;-76
2022/08/19 10:47:04;;;;;;;14.73;13.50;;;;;;;;;;5095309;28;20490;-76
2022/08/19 10:52:34;;;;;;;13.23;12.03;;;;;;;;;;5093770;28;20492;-76
2022/08/19 10:57:54;;;;;;;14.00;12.60;;;;;;;;;;5095090;28;20430;-76
2022/08/19 11:00:30;;;;;;;13.83;12.63;;;;;;;;;;5084346;28;20448;-76
2022/08/19 11:02:57;;;;;;;14.30;13.00;;;;;;;;;;5074801;28;20439;-76
2022/08/19 11:05:24;;;;;;;12.70;11.60;;;;;;;;;;5075007;28;20971;-76
2022/08/19 11:07:51;;;;;;;12.70;11.40;;;;;;;;;;5077955;28;20486;-76
2022/08/19 11:10:18;;;;;;;15.00;13.70;;;;;;;;;;5090067;28;20448;-76
2022/08/19 11:12:47;;;;;;;14.73;13.40;;;;;;;;;;5073273;28;20432;-76
2022/08/19 11:15:14;;;;;;;12.27;11.20;;;;;;;;;;5073668;28;20446;-76
2022/08/19 11:17:43;;;;;;;13.23;12.10;;;;;;;;;;5096307;28;20428;-75
2022/08/19 11:20:11;;;;;;;15.67;14.27;;;;;;;;;;5077663;28;20464;-75
2022/08/19 11:22:40;;;;;;;14.33;13.07;;;;;;;;;;5081650;28;20439;-75
2022/08/19 11:25:09;;;;;;;14.13;12.73;;;;;;;;;;5075038;28;20440;-76
2022/08/19 11:27:41;;;;;;;13.97;12.83;;;;;;;;;;5084740;28;20433;-76
2022/08/19 11:30:08;;;;;;;15.20;13.90;;;;;;;;;;5082353;28;20814;-76
2022/08/19 11:32:42;;;;;;;18.37;16.63;;;;;;;;;;5082620;28;20440;-76
2022/08/19 11:35:15;;;;;;;16.37;14.80;;;;;;;;;;5076681;28;20453;-76
2022/08/19 11:37:42;;;;;;;17.40;15.83;;;;;;;;;;5046004;28;20422;-75
2022/08/19 11:40:10;;;;;;;17.07;15.53;;;;;;;;;;5076586;28;20485;-75
2022/08/19 11:42:56;;;;;;;19.20;17.47;;;;;;;;;;5094611;28;20423;-76
2022/08/19 11:45:23;;;;;;;16.40;14.90;;;;;;;;;;5092324;28;20429;-76
2022/08/19 11:47:50;;;;;;;19.53;17.73;;;;;;;;;;5065187;28;20507;-76
2022/08/19 11:50:17;;;;;;;17.73;16.33;;;;;;;;;;5070208;28;20450;-76
2022/08/19 11:52:45;;;;;;;17.70;16.23;;;;;;;;;;5070963;28;20459;-76
2022/08/19 11:55:13;;;;;;;17.70;16.10;;;;;;;;;;5104823;28;20465;-75
2022/08/19 11:57:41;;;;;;;17.80;16.30;;;;;;;;;;5084148;28;20467;-76
2022/08/19 12:00:09;;;;;;;19.70;17.77;;;;;;;;;;5089627;28;20882;-75
2022/08/19 12:02:36;;;;;;;19.23;17.60;;;;;;;;;;5082263;28;20456;-75
2022/08/19 12:05:05;;;;;;;18.50;16.80;;;;;;;;;;5081865;28;20445;-76
2022/08/19 12:07:39;;;;;;;16.90;15.40;;;;;;;;;;5091579;28;20428;-76
2022/08/19 12:10:05;;;;;;;17.67;16.07;;;;;;;;;;5081754;28;20518;-76
2022/08/19 12:12:34;;;;;;;15.13;13.80;;;;;;;;;;5066270;28;20464;-76
2022/08/19 12:15:01;;;;;;;16.67;14.87;;;;;;;;;;5082286;28;20434;-76
2022/08/19 12:17:30;;;;;;;16.90;15.43;;;;;;;;;;5065303;28;20794;-76
2022/08/19 12:19:57;;;;;;;17.40;15.90;;;;;;;;;;5081659;28;20444;-75
2022/08/19 12:22:24;;;;;;;16.00;13.43;;;;;;;;;;5077009;28;20437;-76
2022/08/19 12:24:53;;;;;;;17.43;15.83;;;;;;;;;;5076559;28;20516;-75
2022/08/19 12:27:19;;;;;;;14.50;13.00;;;;;;;;;;5081283;28;20446;-74
2022/08/19 12:30:08;;;;;;;14.00;12.70;;;;;;;;;;5086226;28;20491;-75
2022/08/19 12:32:35;;;;;;;14.90;13.50;;;;;;;;;;5083649;28;20813;-75
2022/08/19 12:35:03;;;;;;;17.03;15.30;;;;;;;;;;5084741;28;20451;-76
2022/08/19 12:37:32;;;;;;;15.00;13.70;;;;;;;;;;5083419;28;20427;-76
2022/08/19 12:39:59;;;;;;;14.37;12.97;;;;;;;;;;5066011;28;20449;-75
2022/08/19 12:42:27;;;;;;;19.50;12.97;;;;;;;;;;5055719;28;20489;-75
2022/08/19 12:44:53;;;;;;;15.37;13.97;;;;;;;;;;5071652;28;20539;-75
2022/08/19 12:47:20;;;;;;;14.07;12.73;;;;;;;;;;5088131;28;20531;-75
2022/08/19 12:49:47;;;;;;;14.83;13.47;;;;;;;;;;5071225;28;20448;-75
2022/08/19 12:52:24;;;;;;;14.23;13.03;;;;;;;;;;5084302;28;20529;-75
2022/08/19 12:54:52;;;;;;;15.17;13.77;;;;;;;;;;5091484;28;20431;-75
2022/08/19 12:57:20;;;;;;;14.30;13.10;;;;;;;;;;5074859;28;20440;-75
2022/08/19 12:59:52;;;;;;;16.20;14.60;;;;;;;;;;5091153;28;20451;-75
2022/08/19 13:02:19;;;;;;;15.37;14.07;;;;;;;;;;5065761;28;20530;-75
2022/08/19 13:04:46;;;;;;;14.87;13.53;;;;;;;;;;5070879;28;20494;-75
2022/08/19 13:07:12;;;;;;;17.90;16.00;;;;;;;;;;5074770;28;20821;-75
2022/08/19 13:09:42;;;;;;;14.83;13.53;;;;;;;;;;5081897;28;20991;-75
2022/08/19 13:12:12;;;;;;;16.60;15.03;;;;;;;;;;5099173;28;21003;-75
2022/08/19 13:14:40;;;;;;;16.43;14.90;;;;;;;;;;5090718;28;20942;-75
2022/08/19 13:17:08;;;;;;;18.50;16.80;;;;;;;;;;5066888;28;20445;-73
2022/08/19 13:19:39;;;;;;;16.47;14.87;;;;;;;;;;5091521;28;20471;-74
2022/08/19 13:22:07;;;;;;;16.67;15.00;;;;;;;;;;5082590;28;20429;-74
2022/08/19 13:24:41;;;;;;;15.40;13.90;;;;;;;;;;5081230;28;20939;-74
2022/08/19 13:27:13;;;;;;;14.53;13.13;;;;;;;;;;5067481;28;20451;-73
2022/08/19 13:35:15;;;;;;;15.13;13.70;;;;;;;;;;5081174;28;20459;-74
2022/08/19 13:37:43;;;;;;;13.50;12.40;;;;;;;;;;5078291;28;20532;-74
2022/08/19 13:40:14;;;;;;;15.57;14.07;;;;;;;;;;5065566;28;20514;-74
2022/08/19 13:42:42;;;;;;;16.43;15.03;;;;;;;;;;5067692;28;20532;-75
2022/08/19 13:45:10;;;;;;;14.87;13.47;;;;;;;;;;5059295;28;20426;-74
2022/08/19 13:47:43;;;;;;;15.77;14.30;;;;;;;;;;5062226;28;21261;-74
2022/08/19 13:50:12;;;;;;;17.67;15.80;;;;;;;;;;5090774;28;20471;-74
2022/08/19 13:52:39;;;;;;;15.73;14.13;;;;;;;;;;5081544;28;20456;-74
2022/08/19 13:55:07;;;;;;;17.77;15.87;;;;;;;;;;5101617;28;20977;-75
2022/08/19 13:57:35;;;;;;;15.27;13.70;;;;;;;;;;5065700;28;20432;-74
2022/08/19 14:00:03;;;;;;;14.50;13.00;;;;;;;;;;5050665;28;20497;-74
2022/08/19 14:02:30;;;;;;;16.00;14.40;;;;;;;;;;5076406;28;20439;-74
2022/08/19 14:04:58;;;;;;;13.50;12.20;;;;;;;;;;5079818;28;20460;-75
2022/08/19 14:07:25;;;;;;;10.73;9.67;;;;;;;;;;5089025;28;20518;-75
2022/08/19 14:09:53;;;;;;;10.00;9.10;;;;;;;;;;5107326;28;20464;-74
2022/08/19 14:12:20;;;;;;;8.57;7.87;;;;;;;;;;5095271;28;20521;-75
2022/08/19 14:14:54;;;;;;;7.83;7.23;;;;;;;;;;5079733;28;20467;-75
2022/08/19 14:17:21;;;;;;;11.80;7.67;;;;;;;;;;5081511;28;20900;-74
2022/08/19 14:19:48;;;;;;;7.47;6.77;;;;;;;;;;5069066;28;21007;-74
2022/08/19 14:22:15;;;;;;;6.87;6.27;;;;;;;;;;5088612;28;20533;-74
2022/08/19 14:24:48;;;;;;;7.63;7.03;;;;;;;;;;5104997;28;20409;-74
2022/08/19 14:27:15;;;;;;;6.90;6.30;;;;;;;;;;5094966;28;20454;-74
2022/08/19 14:29:42;;;;;;;7.00;6.50;;;;;;;;;;5092467;28;20452;-74
2022/08/19 14:32:09;;;;;;;5.80;5.30;;;;;;;;;;5082631;28;20460;-74
2022/08/19 14:34:42;;;;;;;6.90;6.20;;;;;;;;;;5083997;28;20436;-75
2022/08/19 14:37:09;;;;;;;6.53;5.93;;;;;;;;;;5077791;28;20936;-74
2022/08/19 14:39:44;;;;;;;6.93;6.33;;;;;;;;;;5060529;28;20495;-75
2022/08/19 14:42:13;;;;;;;6.40;5.87;;;;;;;;;;5082342;28;20423;-74
2022/08/19 14:44:41;;;;;;;7.00;6.30;;;;;;;;;;5066956;28;20536;-74
2022/08/19 14:47:07;;;;;;;7.13;6.53;;;;;;;;;;5079658;28;20435;-74
2022/08/19 14:49:35;;;;;;;8.10;6.90;;;;;;;;;;5076818;28;20591;-73
2022/08/19 14:52:10;;;;;;;6.27;5.77;;;;;;;;;;5074729;28;20467;-73
2022/08/19 14:54:36;;;;;;;7.50;6.80;;;;;;;;;;5076502;28;20462;-73
2022/08/19 14:57:03;;;;;;;7.00;6.47;;;;;;;;;;5079417;28;20494;-73
2022/08/19 14:59:29;;;;;;;9.67;8.87;;;;;;;;;;5084350;28;20453;-73
2022/08/19 15:01:56;;;;;;;7.40;6.80;;;;;;;;;;5071734;28;20464;-73